Time,TemperatureF,DewpointF,PressureIn,WindDirection,WindDirectionDegrees,WindSpeedMPH,WindSpeedGustMPH,Humidity,HourlyPrecipIn,Conditions,Clouds,dailyrainin,SoftwareType,DateUTC
2013-04-11 00:04:00,73.0,70.0,29.98,SE,134,0.0,2.0,89,0.00,,,0.00,weatherlink.com 1.10,2013-04-11 04:04:00,
2013-04-11 00:19:00,72.7,70.0,29.97,ESE,117,0.0,2.0,90,0.00,,,0.00,weatherlink.com 1.10,2013-04-11 04:19:00,
2013-04-11 00:34:00,72.3,69.0,29.97,SE,130,0.0,1.0,90,0.00,,,0.00,weatherlink.com 1.10,2013-04-11 04:34:00,
2013-04-11 00:49:00,72.0,69.0,29.97,SE,128,0.0,1.0,91,0.00,,,0.00,weatherlink.com 1.10,2013-04-11 04:49:00,
2013-04-11 01:04:00,71.6,69.0,29.96,ESE,114,0.0,2.0,91,0.00,,,0.00,weatherlink.com 1.10,2013-04-11 05:04:00,
2013-04-11 01:19:00,71.3,69.0,29.96,ESE,120,0.0,4.0,92,0.00,,,0.00,weatherlink.com 1.10,2013-04-11 05:19:00,
2013-04-11 01:34:00,71.1,69.0,29.95,SE,126,0.0,2.0,92,0.00,,,0.00,weatherlink.com 1.10,2013-04-11 05:34:00,
2013-04-11 01:49:00,70.9,69.0,29.95,ESE,119,0.0,1.0,93,0.00,,,0.00,weatherlink.com 1.10,2013-04-11 05:49:00,
2013-04-11 02:04:00,70.9,69.0,29.94,SE,125,0.0,3.0,93,0.00,,,0.00,weatherlink.com 1.10,2013-04-11 06:04:00,
2013-04-11 02:19:00,71.0,69.0,29.94,SE,140,0.0,4.0,93,0.00,,,0.00,weatherlink.com 1.10,2013-04-11 06:19:00,
2013-04-11 02:34:00,71.0,69.0,29.93,ESE,119,0.0,2.0,94,0.00,,,0.00,weatherlink.com 1.10,2013-04-11 06:34:00,
2013-04-11 02:49:00,71.0,69.0,29.93,SE,126,0.0,3.0,94,0.00,,,0.00,weatherlink.com 1.10,2013-04-11 06:49:00,
2013-04-11 03:04:00,71.0,69.0,29.92,SE,133,0.0,3.0,94,0.00,,,0.00,weatherlink.com 1.10,2013-04-11 07:04:00,
2013-04-11 03:19:00,71.0,69.0,29.92,SE,139,0.0,3.0,94,0.00,,,0.00,weatherlink.com 1.10,2013-04-11 07:19:00,
2013-04-11 03:34:00,70.9,69.0,29.91,SE,125,0.0,2.0,94,0.00,,,0.00,weatherlink.com 1.10,2013-04-11 07:34:00,
2013-04-11 03:49:00,70.8,69.0,29.92,ESE,120,0.0,3.0,94,0.00,,,0.00,weatherlink.com 1.10,2013-04-11 07:49:00,
2013-04-11 04:04:00,70.7,69.0,29.91,ESE,120,0.0,2.0,94,0.00,,,0.00,weatherlink.com 1.10,2013-04-11 08:04:00,
2013-04-11 04:19:00,70.6,69.0,29.91,ESE,121,0.0,2.0,94,0.00,,,0.00,weatherlink.com 1.10,2013-04-11 08:19:00,
2013-04-11 04:34:00,70.5,69.0,29.91,ESE,118,0.0,2.0,95,0.00,,,0.00,weatherlink.com 1.10,2013-04-11 08:34:00,
2013-04-11 04:49:00,70.4,69.0,29.91,ESE,118,0.0,1.0,95,0.00,,,0.00,weatherlink.com 1.10,2013-04-11 08:49:00,
2013-04-11 05:04:00,70.3,69.0,29.91,ESE,107,0.0,2.0,95,0.00,,,0.00,weatherlink.com 1.10,2013-04-11 09:04:00,
2013-04-11 05:19:00,70.1,69.0,29.91,SE,135,0.0,3.0,95,0.00,,,0.00,weatherlink.com 1.10,2013-04-11 09:19:00,
2013-04-11 05:34:00,70.1,69.0,29.91,East,92,0.0,3.0,95,0.00,,,0.00,weatherlink.com 1.10,2013-04-11 09:34:00,
2013-04-11 05:49:00,70.0,69.0,29.91,SE,133,0.0,2.0,95,0.00,,,0.00,weatherlink.com 1.10,2013-04-11 09:49:00,
2013-04-11 06:04:00,69.9,69.0,29.91,SE,133,0.0,1.0,95,0.00,,,0.00,weatherlink.com 1.10,2013-04-11 10:04:00,
2013-04-11 06:19:00,69.9,69.0,29.91,SE,136,1.0,2.0,95,0.00,,,0.00,weatherlink.com 1.10,2013-04-11 10:19:00,
2013-04-11 06:34:00,70.0,69.0,29.91,ESE,120,1.0,2.0,95,0.00,,,0.00,weatherlink.com 1.10,2013-04-11 10:34:00,
2013-04-11 06:49:00,69.9,69.0,29.92,SE,136,0.0,4.0,95,0.00,,,0.00,weatherlink.com 1.10,2013-04-11 10:49:00,
2013-04-11 07:04:00,69.9,69.0,29.92,SE,131,1.0,3.0,95,0.00,,,0.00,weatherlink.com 1.10,2013-04-11 11:04:00,
2013-04-11 07:19:00,69.9,69.0,29.92,SE,136,0.0,3.0,95,0.00,,,0.00,weatherlink.com 1.10,2013-04-11 11:19:00,
2013-04-11 07:34:00,70.1,69.0,29.93,SE,130,0.0,3.0,96,0.00,,,0.00,weatherlink.com 1.10,2013-04-11 11:34:00,
2013-04-11 07:49:00,70.3,69.0,29.93,SSE,150,0.0,4.0,96,0.00,,,0.00,weatherlink.com 1.10,2013-04-11 11:49:00,
2013-04-11 08:04:00,70.7,70.0,29.94,SE,127,0.0,3.0,96,0.00,,,0.00,weatherlink.com 1.10,2013-04-11 12:04:00,
2013-04-11 08:19:00,71.4,70.0,29.94,ESE,115,1.0,5.0,96,0.00,,,0.00,weatherlink.com 1.10,2013-04-11 12:19:00,
2013-04-11 08:34:00,72.1,71.0,29.95,SE,134,1.0,7.0,95,0.00,,,0.00,weatherlink.com 1.10,2013-04-11 12:34:00,
2013-04-11 08:49:00,73.1,72.0,29.94,ESE,123,1.0,6.0,95,0.00,,,0.00,weatherlink.com 1.10,2013-04-11 12:49:00,
2013-04-11 09:04:00,74.3,72.0,29.95,SSE,157,3.0,8.0,93,0.00,,,0.00,weatherlink.com 1.10,2013-04-11 13:04:00,
2013-04-11 09:20:00,75.6,73.0,29.95,SE,125,3.0,8.0,90,0.00,,,0.00,weatherlink.com 1.10,2013-04-11 13:20:00,
2013-04-11 09:35:00,76.3,73.0,29.95,SSE,161,2.0,11.0,88,0.00,,,0.00,weatherlink.com 1.10,2013-04-11 13:35:00,
2013-04-11 09:50:00,77.5,73.0,29.95,ESE,113,1.0,7.0,86,0.00,,,0.00,weatherlink.com 1.10,2013-04-11 13:50:00,
2013-04-11 10:05:00,79.2,74.0,29.95,SE,142,4.0,8.0,83,0.00,,,0.00,weatherlink.com 1.10,2013-04-11 14:05:00,
2013-04-11 10:20:00,80.4,73.0,29.95,SE,137,3.0,12.0,79,0.00,,,0.00,weatherlink.com 1.10,2013-04-11 14:20:00,
2013-04-11 10:35:00,80.6,73.0,29.95,East,98,2.0,8.0,78,0.00,,,0.00,weatherlink.com 1.10,2013-04-11 14:35:00,
2013-04-11 10:50:00,80.8,73.0,29.96,SSE,164,2.0,7.0,78,0.00,,,0.00,weatherlink.com 1.10,2013-04-11 14:50:00,
2013-04-11 11:05:00,82.4,74.0,29.96,SE,125,2.0,13.0,75,0.00,,,0.00,weatherlink.com 1.10,2013-04-11 15:05:00,
2013-04-11 11:20:00,83.6,73.0,29.95,East,88,2.0,10.0,70,0.00,,,0.00,weatherlink.com 1.10,2013-04-11 15:20:00,
2013-04-11 11:35:00,84.5,73.0,29.95,SSE,149,4.0,10.0,69,0.00,,,0.00,weatherlink.com 1.10,2013-04-11 15:35:00,
2013-04-11 11:50:00,85.8,74.0,29.94,SE,136,3.0,9.0,67,0.00,,,0.00,weatherlink.com 1.10,2013-04-11 15:50:00,
2013-04-11 12:05:00,86.7,73.0,29.93,SE,135,4.0,14.0,64,0.00,,,0.00,weatherlink.com 1.10,2013-04-11 16:05:00,
2013-04-11 12:20:00,87.5,73.0,29.93,East,101,0.0,12.0,62,0.00,,,0.00,weatherlink.com 1.10,2013-04-11 16:20:00,
2013-04-11 12:35:00,88.0,71.0,29.92,SE,143,2.0,14.0,58,0.00,,,0.00,weatherlink.com 1.10,2013-04-11 16:35:00,
2013-04-11 12:50:00,88.2,73.0,29.92,SSW,192,4.0,11.0,60,0.00,,,0.00,weatherlink.com 1.10,2013-04-11 16:50:00,
2013-04-11 13:05:00,88.0,72.0,29.91,South,172,4.0,9.0,59,0.00,,,0.00,weatherlink.com 1.10,2013-04-11 17:05:00,
2013-04-11 13:20:00,87.5,73.0,29.91,SSE,162,8.0,15.0,62,0.00,,,0.00,weatherlink.com 1.10,2013-04-11 17:20:00,
2013-04-11 13:35:00,89.4,72.0,29.90,SE,136,5.0,12.0,57,0.00,,,0.00,weatherlink.com 1.10,2013-04-11 17:35:00,
2013-04-11 13:50:00,89.3,71.0,29.90,SSE,159,3.0,12.0,55,0.00,,,0.00,weatherlink.com 1.10,2013-04-11 17:50:00,
2013-04-11 14:05:00,88.7,74.0,29.89,SSE,149,0.0,9.0,61,0.00,,,0.00,weatherlink.com 1.10,2013-04-11 18:05:00,
2013-04-11 14:20:00,88.6,72.0,29.89,SE,142,3.0,11.0,58,0.00,,,0.00,weatherlink.com 1.10,2013-04-11 18:20:00,
2013-04-11 14:35:00,86.5,72.0,29.89,South,174,4.0,9.0,63,0.00,,,0.00,weatherlink.com 1.10,2013-04-11 18:35:00,
2013-04-11 14:50:00,86.3,73.0,29.88,SE,140,2.0,10.0,64,0.00,,,0.00,weatherlink.com 1.10,2013-04-11 18:50:00,
2013-04-11 15:05:00,86.2,72.0,29.88,SSE,150,1.0,10.0,63,0.00,,,0.00,weatherlink.com 1.10,2013-04-11 19:05:00,
2013-04-11 15:20:00,88.3,73.0,29.87,SSE,165,7.0,12.0,60,0.00,,,0.00,weatherlink.com 1.10,2013-04-11 19:20:00,
2013-04-11 15:36:00,86.2,72.0,29.87,SE,140,5.0,17.0,63,0.00,,,0.00,weatherlink.com 1.10,2013-04-11 19:36:00,
2013-04-11 15:50:00,85.7,72.0,29.87,SW,229,4.0,12.0,63,0.00,,,0.00,weatherlink.com 1.10,2013-04-11 19:50:00,
2013-04-11 16:06:00,85.3,73.0,29.86,SE,132,0.0,6.0,66,0.00,,,0.00,weatherlink.com 1.10,2013-04-11 20:06:00,
2013-04-11 16:20:00,86.1,74.0,29.86,SE,140,2.0,9.0,67,0.00,,,0.00,weatherlink.com 1.10,2013-04-11 20:20:00,
2013-04-11 16:36:00,86.1,73.0,29.85,SSE,163,4.0,12.0,65,0.00,,,0.00,weatherlink.com 1.10,2013-04-11 20:36:00,
2013-04-11 16:51:00,85.0,73.0,29.85,SE,145,2.0,11.0,67,0.00,,,0.00,weatherlink.com 1.10,2013-04-11 20:51:00,
2013-04-11 17:06:00,85.3,74.0,29.84,SSE,153,1.0,9.0,68,0.00,,,0.00,weatherlink.com 1.10,2013-04-11 21:06:00,
2013-04-11 17:21:00,87.0,73.0,29.84,ESE,123,3.0,10.0,64,0.00,,,0.00,weatherlink.com 1.10,2013-04-11 21:21:00,
2013-04-11 17:36:00,87.2,74.0,29.84,SSE,147,4.0,7.0,65,0.00,,,0.00,weatherlink.com 1.10,2013-04-11 21:36:00,
2013-04-11 17:51:00,86.0,73.0,29.84,SE,128,3.0,10.0,66,0.00,,,0.00,weatherlink.com 1.10,2013-04-11 21:51:00,
2013-04-11 18:06:00,85.6,73.0,29.84,South,183,4.0,8.0,67,0.00,,,0.00,weatherlink.com 1.10,2013-04-11 22:06:00,
2013-04-11 18:21:00,85.5,74.0,29.83,SE,145,1.0,7.0,68,0.00,,,0.00,weatherlink.com 1.10,2013-04-11 22:21:00,
2013-04-11 18:36:00,86.4,74.0,29.83,SSE,150,0.0,5.0,67,0.00,,,0.00,weatherlink.com 1.10,2013-04-11 22:36:00,
2013-04-11 19:06:00,85.9,74.0,29.84,SE,146,4.0,6.0,68,0.00,,,0.00,weatherlink.com 1.10,2013-04-11 23:06:00,
2013-04-11 19:36:00,82.7,73.0,29.84,SE,131,0.0,3.0,73,0.00,,,0.00,weatherlink.com 1.10,2013-04-11 23:36:00,
2013-04-11 20:21:00,79.1,72.0,29.85,SE,138,1.0,1.0,79,0.00,,,0.00,weatherlink.com 1.10,2013-04-12 00:21:00,
2013-04-11 21:21:00,77.3,72.0,29.84,SSE,155,3.0,4.0,83,0.00,,,0.00,weatherlink.com 1.10,2013-04-12 01:21:00,
2013-04-11 22:51:00,76.4,71.0,29.84,SSE,148,3.0,11.0,84,0.00,,,0.00,weatherlink.com 1.10,2013-04-12 02:51:00,
2013-04-11 23:06:00,76.2,71.0,29.84,SSE,164,1.0,11.0,85,0.00,,,0.00,weatherlink.com 1.10,2013-04-12 03:06:00,
2013-04-11 23:21:00,76.1,71.0,29.85,ESE,107,1.0,13.0,85,0.00,,,0.00,weatherlink.com 1.10,2013-04-12 03:21:00,
2013-04-11 23:36:00,76.0,72.0,29.84,SSE,161,6.0,11.0,86,0.00,,,0.00,weatherlink.com 1.10,2013-04-12 03:36:00,
2013-04-11 23:51:00,75.8,71.0,29.85,SSE,150,0.0,9.0,86,0.00,,,0.00,weatherlink.com 1.10,2013-04-12 03:51:00,